sensor_id;sensor_type;location;lat;lon;timestamp;pressure;altitude;pressure_sealevel;temperature;humidity
58662;BME280;44432;49.786;22.760;2023-04-01T00:01:39;97593.80;;;10.37;71.11
58662;BME280;44432;49.786;22.760;2023-04-01T00:04:10;97585.73;;;10.42;71.06
58662;BME280;44432;49.786;22.760;2023-04-01T00:06:41;97583.13;;;10.46;71.04
58662;BME280;44432;49.786;22.760;2023-04-01T00:09:11;97580.11;;;10.46;70.97
58662;BME280;44432;49.786;22.760;2023-04-01T00:11:42;97577.10;;;10.44;71.18
58662;BME280;44432;49.786;22.760;2023-04-01T00:14:14;97565.52;;;10.39;71.02
58662;BME280;44432;49.786;22.760;2023-04-01T00:16:45;97576.02;;;10.37;70.94
58662;BME280;44432;49.786;22.760;2023-04-01T00:19:16;97572.21;;;10.36;70.91
58662;BME280;44432;49.786;22.760;2023-04-01T00:21:47;97578.36;;;10.34;71.41
58662;BME280;44432;49.786;22.760;2023-04-01T00:24:18;97571.52;;;10.34;71.28
58662;BME280;44432;49.786;22.760;2023-04-01T00:26:49;97562.50;;;10.36;71.35
58662;BME280;44432;49.786;22.760;2023-04-01T00:29:20;97558.86;;;10.36;71.54
58662;BME280;44432;49.786;22.760;2023-04-01T00:31:50;97557.98;;;10.38;71.52
58662;BME280;44432;49.786;22.760;2023-04-01T00:34:21;97556.76;;;10.37;71.30
58662;BME280;44432;49.786;22.760;2023-04-01T00:36:53;97553.05;;;10.35;71.18
58662;BME280;44432;49.786;22.760;2023-04-01T00:39:24;97548.36;;;10.36;71.05
58662;BME280;44432;49.786;22.760;2023-04-01T00:41:55;97545.30;;;10.37;70.83
58662;BME280;44432;49.786;22.760;2023-04-01T00:44:28;97540.34;;;10.36;70.94
58662;BME280;44432;49.786;22.760;2023-04-01T00:47:00;97536.71;;;10.38;70.86
58662;BME280;44432;49.786;22.760;2023-04-01T00:49:34;97539.20;;;10.42;71.02
58662;BME280;44432;49.786;22.760;2023-04-01T00:52:08;97542.02;;;10.44;70.99
58662;BME280;44432;49.786;22.760;2023-04-01T00:54:43;97539.42;;;10.44;70.85
58662;BME280;44432;49.786;22.760;2023-04-01T00:57:18;97539.84;;;10.44;70.78
58662;BME280;44432;49.786;22.760;2023-04-01T00:59:52;97533.94;;;10.45;70.68
58662;BME280;44432;49.786;22.760;2023-04-01T01:02:24;97533.19;;;10.44;70.48
58662;BME280;44432;49.786;22.760;2023-04-01T01:04:55;97531.35;;;10.44;70.43
58662;BME280;44432;49.786;22.760;2023-04-01T01:07:31;97530.36;;;10.46;70.48
58662;BME280;44432;49.786;22.760;2023-04-01T01:10:10;97527.21;;;10.49;70.46
58662;BME280;44432;49.786;22.760;2023-04-01T01:12:47;97526.96;;;10.52;70.56
58662;BME280;44432;49.786;22.760;2023-04-01T01:15:23;97521.27;;;10.54;70.59
58662;BME280;44432;49.786;22.760;2023-04-01T01:18:01;97519.30;;;10.58;70.41
58662;BME280;44432;49.786;22.760;2023-04-01T01:24:05;97522.31;;;10.59;70.48
58662;BME280;44432;49.786;22.760;2023-04-01T01:26:49;97522.52;;;10.59;70.50
58662;BME280;44432;49.786;22.760;2023-04-01T01:32:48;97526.11;;;10.58;70.43
58662;BME280;44432;49.786;22.760;2023-04-01T01:35:26;97528.43;;;10.59;70.22
58662;BME280;44432;49.786;22.760;2023-04-01T01:38:00;97530.77;;;10.62;70.11
58662;BME280;44432;49.786;22.760;2023-04-01T01:40:33;97537.29;;;10.66;70.23
58662;BME280;44432;49.786;22.760;2023-04-01T01:43:08;97531.50;;;10.69;70.05
58662;BME280;44432;49.786;22.760;2023-04-01T01:45:43;97532.05;;;10.73;69.97
58662;BME280;44432;49.786;22.760;2023-04-01T01:48:15;97534.38;;;10.75;70.08
58662;BME280;44432;49.786;22.760;2023-04-01T01:50:48;97540.30;;;10.75;69.87
58662;BME280;44432;49.786;22.760;2023-04-01T01:53:19;97541.41;;;10.75;69.80
58662;BME280;44432;49.786;22.760;2023-04-01T01:55:50;97539.14;;;10.74;69.86
58662;BME280;44432;49.786;22.760;2023-04-01T01:58:24;97543.78;;;10.74;69.74
58662;BME280;44432;49.786;22.760;2023-04-01T02:00:58;97541.45;;;10.73;69.70
58662;BME280;44432;49.786;22.760;2023-04-01T02:03:31;97544.20;;;10.74;69.62
58662;BME280;44432;49.786;22.760;2023-04-01T02:06:06;97541.20;;;10.75;69.45
58662;BME280;44432;49.786;22.760;2023-04-01T02:08:39;97544.16;;;10.77;69.62
58662;BME280;44432;49.786;22.760;2023-04-01T02:11:14;97543.56;;;10.81;69.47
58662;BME280;44432;49.786;22.760;2023-04-01T02:13:51;97540.04;;;10.85;69.59
58662;BME280;44432;49.786;22.760;2023-04-01T02:16:26;97545.38;;;10.88;69.54
58662;BME280;44432;49.786;22.760;2023-04-01T02:19:00;97545.03;;;10.90;69.56
58662;BME280;44432;49.786;22.760;2023-04-01T02:21:37;97544.14;;;10.91;69.65
58662;BME280;44432;49.786;22.760;2023-04-01T02:24:13;97546.45;;;10.91;69.40
58662;BME280;44432;49.786;22.760;2023-04-01T02:26:46;97546.29;;;10.89;69.57
58662;BME280;44432;49.786;22.760;2023-04-01T02:29:18;97546.01;;;10.85;69.53
58662;BME280;44432;49.786;22.760;2023-04-01T02:31:51;97550.66;;;10.79;69.33
58662;BME280;44432;49.786;22.760;2023-04-01T02:34:23;97555.36;;;10.76;69.39
58662;BME280;44432;49.786;22.760;2023-04-01T02:36:56;97555.34;;;10.74;69.52
58662;BME280;44432;49.786;22.760;2023-04-01T02:39:27;97555.77;;;10.74;69.73
58662;BME280;44432;49.786;22.760;2023-04-01T02:41:58;97557.45;;;10.74;69.97
58662;BME280;44432;49.786;22.760;2023-04-01T02:44:29;97558.13;;;10.73;70.06
58662;BME280;44432;49.786;22.760;2023-04-01T02:47:00;97560.55;;;10.72;70.35
58662;BME280;44432;49.786;22.760;2023-04-01T02:49:31;97566.91;;;10.68;70.39
58662;BME280;44432;49.786;22.760;2023-04-01T02:52:02;97568.73;;;10.62;70.87
58662;BME280;44432;49.786;22.760;2023-04-01T02:54:32;97571.23;;;10.58;71.19
58662;BME280;44432;49.786;22.760;2023-04-01T02:57:03;97572.41;;;10.53;71.37
58662;BME280;44432;49.786;22.760;2023-04-01T02:59:34;97570.73;;;10.44;71.47
58662;BME280;44432;49.786;22.760;2023-04-01T03:02:05;97578.98;;;10.41;72.05
58662;BME280;44432;49.786;22.760;2023-04-01T03:04:36;97585.14;;;10.35;72.31
58662;BME280;44432;49.786;22.760;2023-04-01T03:07:08;97586.98;;;10.29;72.83
58662;BME280;44432;49.786;22.760;2023-04-01T03:09:39;97586.73;;;10.26;73.12
58662;BME280;44432;49.786;22.760;2023-04-01T03:12:10;97590.17;;;10.21;73.41
58662;BME280;44432;49.786;22.760;2023-04-01T03:14:41;97588.48;;;10.18;73.72
58662;BME280;44432;49.786;22.760;2023-04-01T03:17:11;97586.72;;;10.14;74.19
58662;BME280;44432;49.786;22.760;2023-04-01T03:19:42;97587.55;;;10.08;74.44
58662;BME280;44432;49.786;22.760;2023-04-01T03:22:13;97592.70;;;10.05;74.86
58662;BME280;44432;49.786;22.760;2023-04-01T03:24:44;97591.70;;;10.00;75.13
58662;BME280;44432;49.786;22.760;2023-04-01T03:27:15;97595.94;;;9.96;75.36
58662;BME280;44432;49.786;22.760;2023-04-01T03:29:46;97596.70;;;9.93;75.75
58662;BME280;44432;49.786;22.760;2023-04-01T03:32:17;97596.82;;;9.90;76.10
58662;BME280;44432;49.786;22.760;2023-04-01T03:34:47;97598.75;;;9.87;76.38
58662;BME280;44432;49.786;22.760;2023-04-01T03:37:18;97596.85;;;9.87;76.77
58662;BME280;44432;49.786;22.760;2023-04-01T03:39:50;97595.95;;;9.87;77.03
58662;BME280;44432;49.786;22.760;2023-04-01T03:42:20;97600.42;;;9.86;77.09
58662;BME280;44432;49.786;22.760;2023-04-01T03:44:51;97599.46;;;9.85;77.27
58662;BME280;44432;49.786;22.760;2023-04-01T03:47:22;97599.88;;;9.85;77.46
58662;BME280;44432;49.786;22.760;2023-04-01T03:49:53;97601.88;;;9.83;77.55
58662;BME280;44432;49.786;22.760;2023-04-01T03:52:24;97600.75;;;9.81;77.74
58662;BME280;44432;49.786;22.760;2023-04-01T03:54:54;97610.23;;;9.81;77.71
58662;BME280;44432;49.786;22.760;2023-04-01T03:57:25;97609.48;;;9.80;78.05
58662;BME280;44432;49.786;22.760;2023-04-01T03:59:56;97611.54;;;9.80;78.01
58662;BME280;44432;49.786;22.760;2023-04-01T04:02:27;97616.11;;;9.79;78.00
58662;BME280;44432;49.786;22.760;2023-04-01T04:04:58;97616.23;;;9.75;77.96
58662;BME280;44432;49.786;22.760;2023-04-01T04:07:29;97618.20;;;9.73;77.99
58662;BME280;44432;49.786;22.760;2023-04-01T04:10:00;97619.98;;;9.70;78.10
58662;BME280;44432;49.786;22.760;2023-04-01T04:12:30;97618.60;;;9.70;78.37
58662;BME280;44432;49.786;22.760;2023-04-01T04:15:01;97616.58;;;9.68;78.39
58662;BME280;44432;49.786;22.760;2023-04-01T04:17:32;97618.72;;;9.67;78.43
58662;BME280;44432;49.786;22.760;2023-04-01T04:20:04;97611.19;;;9.67;78.57
58662;BME280;44432;49.786;22.760;2023-04-01T04:22:35;97612.38;;;9.65;78.44
58662;BME280;44432;49.786;22.760;2023-04-01T04:25:07;97610.95;;;9.64;78.78
58662;BME280;44432;49.786;22.760;2023-04-01T04:27:38;97611.54;;;9.65;78.77
58662;BME280;44432;49.786;22.760;2023-04-01T04:30:10;97616.23;;;9.66;78.72
58662;BME280;44432;49.786;22.760;2023-04-01T04:32:41;97617.50;;;9.66;79.02
58662;BME280;44432;49.786;22.760;2023-04-01T04:35:12;97619.14;;;9.67;79.05
58662;BME280;44432;49.786;22.760;2023-04-01T04:37:42;97616.87;;;9.67;79.18
58662;BME280;44432;49.786;22.760;2023-04-01T04:40:14;97616.50;;;9.67;79.20
58662;BME280;44432;49.786;22.760;2023-04-01T04:42:44;97621.40;;;9.66;79.15
58662;BME280;44432;49.786;22.760;2023-04-01T04:45:15;97627.20;;;9.66;79.41
58662;BME280;44432;49.786;22.760;2023-04-01T04:47:46;97626.73;;;9.68;79.47
58662;BME280;44432;49.786;22.760;2023-04-01T04:50:17;97626.17;;;9.69;79.42
58662;BME280;44432;49.786;22.760;2023-04-01T04:52:48;97628.02;;;9.70;79.37
58662;BME280;44432;49.786;22.760;2023-04-01T04:55:20;97621.05;;;9.64;79.12
58662;BME280;44432;49.786;22.760;2023-04-01T04:57:51;97629.37;;;9.68;79.20
58662;BME280;44432;49.786;22.760;2023-04-01T05:00:22;97634.91;;;9.68;79.23
58662;BME280;44432;49.786;22.760;2023-04-01T05:02:53;97630.94;;;9.71;79.43
58662;BME280;44432;49.786;22.760;2023-04-01T05:05:24;97633.50;;;9.74;79.42
58662;BME280;44432;49.786;22.760;2023-04-01T05:07:55;97634.98;;;9.73;79.10
58662;BME280;44432;49.786;22.760;2023-04-01T05:10:25;97633.41;;;9.75;79.26
58662;BME280;44432;49.786;22.760;2023-04-01T05:12:56;97633.05;;;9.76;79.13
58662;BME280;44432;49.786;22.760;2023-04-01T05:15:27;97631.41;;;9.75;79.04
58662;BME280;44432;49.786;22.760;2023-04-01T05:17:58;97633.33;;;9.78;79.01
58662;BME280;44432;49.786;22.760;2023-04-01T05:20:29;97634.16;;;9.80;79.05
58662;BME280;44432;49.786;22.760;2023-04-01T05:23:00;97634.20;;;9.84;79.15
58662;BME280;44432;49.786;22.760;2023-04-01T05:25:31;97639.22;;;9.86;78.93
58662;BME280;44432;49.786;22.760;2023-04-01T05:28:02;97637.20;;;9.89;79.06
58662;BME280;44432;49.786;22.760;2023-04-01T05:30:33;97638.11;;;9.91;78.95
58662;BME280;44432;49.786;22.760;2023-04-01T05:33:04;97638.27;;;9.92;78.88
58662;BME280;44432;49.786;22.760;2023-04-01T05:35:35;97634.98;;;9.89;78.60
58662;BME280;44432;49.786;22.760;2023-04-01T05:38:06;97637.09;;;9.88;78.53
58662;BME280;44432;49.786;22.760;2023-04-01T05:40:36;97637.36;;;9.84;78.28
58662;BME280;44432;49.786;22.760;2023-04-01T05:43:07;97636.67;;;9.83;78.34
58662;BME280;44432;49.786;22.760;2023-04-01T05:45:38;97637.95;;;9.81;78.13
58662;BME280;44432;49.786;22.760;2023-04-01T05:48:09;97636.52;;;9.79;78.17
58662;BME280;44432;49.786;22.760;2023-04-01T05:50:41;97632.71;;;9.78;78.07
58662;BME280;44432;49.786;22.760;2023-04-01T05:53:12;97635.73;;;9.79;78.30
58662;BME280;44432;49.786;22.760;2023-04-01T05:55:43;97636.50;;;9.83;78.29
58662;BME280;44432;49.786;22.760;2023-04-01T05:58:14;97641.35;;;9.88;78.16
58662;BME280;44432;49.786;22.760;2023-04-01T06:00:44;97634.58;;;9.91;77.94
58662;BME280;44432;49.786;22.760;2023-04-01T06:03:15;97638.44;;;9.96;77.97
58662;BME280;44432;49.786;22.760;2023-04-01T06:05:46;97633.61;;;9.99;77.66
58662;BME280;44432;49.786;22.760;2023-04-01T06:08:18;97634.64;;;10.01;77.86
58662;BME280;44432;49.786;22.760;2023-04-01T06:11:08;97634.56;;;10.05;77.50
58662;BME280;44432;49.786;22.760;2023-04-01T06:13:55;97638.23;;;10.14;77.57
58662;BME280;44432;49.786;22.760;2023-04-01T06:16:38;97643.91;;;10.24;77.71
58662;BME280;44432;49.786;22.760;2023-04-01T06:19:21;97647.02;;;10.31;77.26
58662;BME280;44432;49.786;22.760;2023-04-01T06:22:16;97646.67;;;10.38;77.14
58662;BME280;44432;49.786;22.760;2023-04-01T06:25:20;97646.17;;;10.44;76.97
58662;BME280;44432;49.786;22.760;2023-04-01T06:28:07;97651.66;;;10.52;76.81
58662;BME280;44432;49.786;22.760;2023-04-01T06:30:49;97655.38;;;10.61;76.65
58662;BME280;44432;49.786;22.760;2023-04-01T06:33:39;97660.05;;;10.71;76.71
58662;BME280;44432;49.786;22.760;2023-04-01T06:36:39;97660.73;;;10.77;76.32
58662;BME280;44432;49.786;22.760;2023-04-01T06:39:34;97667.03;;;10.87;76.13
58662;BME280;44432;49.786;22.760;2023-04-01T06:45:16;97662.33;;;11.02;75.46
58662;BME280;44432;49.786;22.760;2023-04-01T06:48:00;97663.42;;;11.06;74.91
58662;BME280;44432;49.786;22.760;2023-04-01T06:50:39;97659.60;;;11.05;74.39
58662;BME280;44432;49.786;22.760;2023-04-01T06:53:21;97663.17;;;11.09;74.37
58662;BME280;44432;49.786;22.760;2023-04-01T06:55:59;97663.09;;;11.13;74.12
58662;BME280;44432;49.786;22.760;2023-04-01T06:58:33;97664.80;;;11.18;74.07
58662;BME280;44432;49.786;22.760;2023-04-01T07:01:08;97664.80;;;11.24;74.08
58662;BME280;44432;49.786;22.760;2023-04-01T07:03:43;97659.69;;;11.29;74.05
58662;BME280;44432;49.786;22.760;2023-04-01T07:06:19;97661.26;;;11.35;73.79
58662;BME280;44432;49.786;22.760;2023-04-01T07:08:54;97660.02;;;11.44;73.54
58662;BME280;44432;49.786;22.760;2023-04-01T07:11:31;97661.69;;;11.53;73.37
58662;BME280;44432;49.786;22.760;2023-04-01T07:14:04;97662.09;;;11.62;73.25
58662;BME280;44432;49.786;22.760;2023-04-01T07:16:39;97660.63;;;11.64;72.59
58662;BME280;44432;49.786;22.760;2023-04-01T07:19:14;97656.23;;;11.65;72.46
58662;BME280;44432;49.786;22.760;2023-04-01T07:21:49;97652.39;;;11.67;72.14
58662;BME280;44432;49.786;22.760;2023-04-01T07:24:24;97649.48;;;11.71;72.28
58662;BME280;44432;49.786;22.760;2023-04-01T07:26:57;97646.39;;;11.74;72.47
58662;BME280;44432;49.786;22.760;2023-04-01T07:29:28;97653.84;;;11.79;72.00
58662;BME280;44432;49.786;22.760;2023-04-01T07:32:20;97652.69;;;11.76;71.29
58662;BME280;44432;49.786;22.760;2023-04-01T07:35:16;97653.61;;;11.68;71.08
58662;BME280;44432;49.786;22.760;2023-04-01T07:37:59;97652.36;;;11.61;70.98
58662;BME280;44432;49.786;22.760;2023-04-01T07:40:39;97650.90;;;11.52;71.01
58662;BME280;44432;49.786;22.760;2023-04-01T07:43:28;97658.02;;;11.44;71.47
58662;BME280;44432;49.786;22.760;2023-04-01T07:46:13;97655.77;;;11.37;71.17
58662;BME280;44432;49.786;22.760;2023-04-01T07:48:52;97658.16;;;11.29;71.29
58662;BME280;44432;49.786;22.760;2023-04-01T07:51:29;97654.68;;;11.22;71.14
58662;BME280;44432;49.786;22.760;2023-04-01T07:54:08;97655.80;;;11.24;71.71
58662;BME280;44432;49.786;22.760;2023-04-01T07:56:47;97651.84;;;11.31;71.51
58662;BME280;44432;49.786;22.760;2023-04-01T07:59:27;97648.16;;;11.40;71.52
58662;BME280;44432;49.786;22.760;2023-04-01T08:02:08;97645.29;;;11.52;71.40
58662;BME280;44432;49.786;22.760;2023-04-01T08:04:51;97641.85;;;11.65;71.23
58662;BME280;44432;49.786;22.760;2023-04-01T08:07:27;97644.39;;;11.77;70.88
58662;BME280;44432;49.786;22.760;2023-04-01T08:10:07;97644.17;;;11.84;69.77
58662;BME280;44432;49.786;22.760;2023-04-01T08:12:51;97646.67;;;11.90;69.06
58662;BME280;44432;49.786;22.760;2023-04-01T08:15:29;97648.70;;;11.98;68.90
58662;BME280;44432;49.786;22.760;2023-04-01T08:18:15;97646.99;;;12.16;69.16
58662;BME280;44432;49.786;22.760;2023-04-01T08:20:53;97641.57;;;12.46;69.40
58662;BME280;44432;49.786;22.760;2023-04-01T08:23:30;97641.23;;;12.72;68.69
58662;BME280;44432;49.786;22.760;2023-04-01T08:26:04;97638.72;;;12.96;68.05
58662;BME280;44432;49.786;22.760;2023-04-01T08:28:39;97638.70;;;13.21;67.20
58662;BME280;44432;49.786;22.760;2023-04-01T08:31:14;97640.77;;;13.36;66.46
58662;BME280;44432;49.786;22.760;2023-04-01T08:33:48;97641.11;;;13.47;66.34
58662;BME280;44432;49.786;22.760;2023-04-01T08:36:19;97647.59;;;13.54;64.75
58662;BME280;44432;49.786;22.760;2023-04-01T08:38:55;97647.94;;;13.51;63.91
58662;BME280;44432;49.786;22.760;2023-04-01T08:41:52;97646.15;;;13.55;63.48
58662;BME280;44432;49.786;22.760;2023-04-01T08:45:01;97643.73;;;13.51;62.60
58662;BME280;44432;49.786;22.760;2023-04-01T08:53:59;97648.56;;;13.60;62.35
58662;BME280;44432;49.786;22.760;2023-04-01T08:56:36;97645.52;;;13.78;62.33
58662;BME280;44432;49.786;22.760;2023-04-01T08:59:33;97641.58;;;14.01;62.12
58662;BME280;44432;49.786;22.760;2023-04-01T09:05:28;97640.68;;;14.51;60.77
58662;BME280;44432;49.786;22.760;2023-04-01T09:08:12;97644.88;;;14.67;60.16
58662;BME280;44432;49.786;22.760;2023-04-01T09:10:57;97643.92;;;14.81;59.47
58662;BME280;44432;49.786;22.760;2023-04-01T09:20:09;97640.84;;;15.03;58.36
58662;BME280;44432;49.786;22.760;2023-04-01T09:22:58;97640.48;;;15.18;58.07
58662;BME280;44432;49.786;22.760;2023-04-01T09:25:59;97634.89;;;15.24;57.67
58662;BME280;44432;49.786;22.760;2023-04-01T09:28:37;97638.01;;;15.31;57.66
58662;BME280;44432;49.786;22.760;2023-04-01T09:31:26;97637.39;;;15.44;57.46
58662;BME280;44432;49.786;22.760;2023-04-01T09:37:06;97630.13;;;15.85;56.69
58662;BME280;44432;49.786;22.760;2023-04-01T09:39:54;97627.20;;;16.08;56.39
58662;BME280;44432;49.786;22.760;2023-04-01T09:42:47;97628.42;;;16.23;54.51
58662;BME280;44432;49.786;22.760;2023-04-01T09:45:37;97627.79;;;16.22;54.63
58662;BME280;44432;49.786;22.760;2023-04-01T09:48:21;97628.60;;;16.36;54.61
58662;BME280;44432;49.786;22.760;2023-04-01T09:51:03;97628.71;;;16.45;53.58
58662;BME280;44432;49.786;22.760;2023-04-01T09:53:50;97627.77;;;16.51;53.89
58662;BME280;44432;49.786;22.760;2023-04-01T09:56:48;97632.23;;;16.60;53.85
58662;BME280;44432;49.786;22.760;2023-04-01T10:02:54;97641.70;;;16.26;52.40
58662;BME280;44432;49.786;22.760;2023-04-01T10:06:03;97640.13;;;15.97;52.73
58662;BME280;44432;49.786;22.760;2023-04-01T10:12:11;97636.81;;;15.58;53.00
58662;BME280;44432;49.786;22.760;2023-04-01T10:24:32;97644.18;;;15.30;53.16
58662;BME280;44432;49.786;22.760;2023-04-01T10:27:44;97645.69;;;15.30;52.98
58662;BME280;44432;49.786;22.760;2023-04-01T10:33:51;97646.34;;;15.28;53.12
58662;BME280;44432;49.786;22.760;2023-04-01T10:36:42;97644.63;;;15.38;52.95
58662;BME280;44432;49.786;22.760;2023-04-01T10:39:35;97640.20;;;15.50;52.21
58662;BME280;44432;49.786;22.760;2023-04-01T10:42:36;97634.83;;;15.54;52.08
58662;BME280;44432;49.786;22.760;2023-04-01T10:45:37;97635.60;;;15.56;51.72
58662;BME280;44432;49.786;22.760;2023-04-01T10:48:19;97631.05;;;15.54;51.54
58662;BME280;44432;49.786;22.760;2023-04-01T10:51:18;97633.33;;;15.49;51.45
58662;BME280;44432;49.786;22.760;2023-04-01T10:54:35;97632.23;;;15.38;50.91
58662;BME280;44432;49.786;22.760;2023-04-01T10:57:26;97631.17;;;15.24;51.34
58662;BME280;44432;49.786;22.760;2023-04-01T11:03:35;97634.23;;;15.06;51.50
58662;BME280;44432;49.786;22.760;2023-04-01T11:09:50;97635.45;;;14.99;51.98
58662;BME280;44432;49.786;22.760;2023-04-01T11:16:10;97632.19;;;15.18;52.48
58662;BME280;44432;49.786;22.760;2023-04-01T11:22:25;97625.13;;;15.46;52.59
58662;BME280;44432;49.786;22.760;2023-04-01T11:25:34;97624.06;;;15.64;52.47
58662;BME280;44432;49.786;22.760;2023-04-01T11:31:25;97610.47;;;15.97;51.59
58662;BME280;44432;49.786;22.760;2023-04-01T11:34:07;97605.66;;;16.10;51.20
58662;BME280;44432;49.786;22.760;2023-04-01T11:36:50;97607.55;;;16.23;51.10
58662;BME280;44432;49.786;22.760;2023-04-01T11:39:36;97608.26;;;16.39;50.27
58662;BME280;44432;49.786;22.760;2023-04-01T11:42:20;97606.37;;;16.54;49.59
58662;BME280;44432;49.786;22.760;2023-04-01T11:45:01;97607.13;;;16.69;49.05
58662;BME280;44432;49.786;22.760;2023-04-01T11:50:30;97600.27;;;17.05;48.50
58662;BME280;44432;49.786;22.760;2023-04-01T11:53:16;97601.27;;;17.31;47.82
58662;BME280;44432;49.786;22.760;2023-04-01T11:56:08;97595.32;;;17.56;47.37
58662;BME280;44432;49.786;22.760;2023-04-01T11:59:13;97598.24;;;17.82;47.03
58662;BME280;44432;49.786;22.760;2023-04-01T12:01:55;97595.86;;;18.00;46.32
58662;BME280;44432;49.786;22.760;2023-04-01T12:04:48;97593.30;;;18.05;45.55
58662;BME280;44432;49.786;22.760;2023-04-01T12:07:40;97592.90;;;17.84;44.89
58662;BME280;44432;49.786;22.760;2023-04-01T12:10:19;97595.84;;;17.49;44.72
58662;BME280;44432;49.786;22.760;2023-04-01T12:12:57;97597.59;;;17.30;45.79
58662;BME280;44432;49.786;22.760;2023-04-01T12:15:42;97597.63;;;17.28;46.33
58662;BME280;44432;49.786;22.760;2023-04-01T12:18:21;97596.63;;;17.28;46.51
58662;BME280;44432;49.786;22.760;2023-04-01T12:20:57;97598.71;;;17.19;45.94
58662;BME280;44432;49.786;22.760;2023-04-01T12:24:05;97603.95;;;16.96;45.83
58662;BME280;44432;49.786;22.760;2023-04-01T12:26:55;97610.52;;;16.61;46.39
58662;BME280;44432;49.786;22.760;2023-04-01T12:29:48;97619.63;;;16.34;46.67
58662;BME280;44432;49.786;22.760;2023-04-01T12:32:34;97631.46;;;16.11;46.96
58662;BME280;44432;49.786;22.760;2023-04-01T12:35:23;97653.30;;;15.70;47.83
58662;BME280;44432;49.786;22.760;2023-04-01T12:38:16;97658.92;;;15.07;49.59
58662;BME280;44432;49.786;22.760;2023-04-01T12:41:02;97655.67;;;14.67;51.08
58662;BME280;44432;49.786;22.760;2023-04-01T12:43:57;97658.02;;;14.37;52.04
58662;BME280;44432;49.786;22.760;2023-04-01T12:46:39;97656.98;;;14.26;52.99
58662;BME280;44432;49.786;22.760;2023-04-01T12:49:32;97659.95;;;14.26;53.73
58662;BME280;44432;49.786;22.760;2023-04-01T12:52:11;97646.55;;;14.40;53.91
58662;BME280;44432;49.786;22.760;2023-04-01T13:01:07;97660.04;;;14.85;54.07
58662;BME280;44432;49.786;22.760;2023-04-01T13:03:53;97658.66;;;14.91;54.28
58662;BME280;44432;49.786;22.760;2023-04-01T13:06:39;97654.72;;;14.98;54.04
58662;BME280;44432;49.786;22.760;2023-04-01T13:09:24;97651.89;;;15.10;54.17
58662;BME280;44432;49.786;22.760;2023-04-01T13:12:24;97648.64;;;15.21;53.85
58662;BME280;44432;49.786;22.760;2023-04-01T13:17:56;97658.00;;;15.56;53.96
58662;BME280;44432;49.786;22.760;2023-04-01T13:20:40;97655.97;;;15.74;53.21
58662;BME280;44432;49.786;22.760;2023-04-01T13:23:36;97652.91;;;15.93;53.35
58662;BME280;44432;49.786;22.760;2023-04-01T13:26:21;97651.16;;;16.08;53.15
58662;BME280;44432;49.786;22.760;2023-04-01T13:29:01;97654.50;;;16.16;52.86
58662;BME280;44432;49.786;22.760;2023-04-01T13:31:47;97650.58;;;16.19;52.30
58662;BME280;44432;49.786;22.760;2023-04-01T13:34:30;97650.79;;;16.23;51.70
58662;BME280;44432;49.786;22.760;2023-04-01T13:37:17;97652.04;;;16.24;51.39
58662;BME280;44432;49.786;22.760;2023-04-01T13:40:04;97655.11;;;16.30;51.31
58662;BME280;44432;49.786;22.760;2023-04-01T13:42:47;97658.45;;;16.42;50.76
58662;BME280;44432;49.786;22.760;2023-04-01T13:45:23;97654.98;;;16.47;50.27
58662;BME280;44432;49.786;22.760;2023-04-01T13:48:16;97656.42;;;16.46;50.12
58662;BME280;44432;49.786;22.760;2023-04-01T13:51:16;97658.20;;;16.51;50.33
58662;BME280;44432;49.786;22.760;2023-04-01T13:54:39;97655.98;;;16.53;50.15
58662;BME280;44432;49.786;22.760;2023-04-01T13:57:27;97655.73;;;16.49;50.07
58662;BME280;44432;49.786;22.760;2023-04-01T14:00:29;97652.64;;;16.42;50.16
58662;BME280;44432;49.786;22.760;2023-04-01T14:03:22;97654.69;;;16.37;50.06
58662;BME280;44432;49.786;22.760;2023-04-01T14:06:14;97654.48;;;16.25;49.79
58662;BME280;44432;49.786;22.760;2023-04-01T14:09:02;97655.66;;;16.10;50.04
58662;BME280;44432;49.786;22.760;2023-04-01T14:11:45;97659.38;;;15.95;50.22
58662;BME280;44432;49.786;22.760;2023-04-01T14:14:25;97668.52;;;15.78;50.47
58662;BME280;44432;49.786;22.760;2023-04-01T14:17:29;97688.68;;;15.57;50.62
58662;BME280;44432;49.786;22.760;2023-04-01T14:20:15;97701.58;;;15.17;51.07
58662;BME280;44432;49.786;22.760;2023-04-01T14:23:05;97708.30;;;14.71;52.05
58662;BME280;44432;49.786;22.760;2023-04-01T14:25:52;97712.74;;;14.33;53.60
58662;BME280;44432;49.786;22.760;2023-04-01T14:28:30;97708.77;;;13.99;54.83
58662;BME280;44432;49.786;22.760;2023-04-01T14:31:20;97702.64;;;13.81;56.27
58662;BME280;44432;49.786;22.760;2023-04-01T14:34:03;97695.59;;;13.65;57.25
58662;BME280;44432;49.786;22.760;2023-04-01T14:36:53;97688.63;;;13.53;58.24
58662;BME280;44432;49.786;22.760;2023-04-01T14:39:54;97689.13;;;13.52;59.33
58662;BME280;44432;49.786;22.760;2023-04-01T14:42:48;97685.60;;;13.55;59.44
58662;BME280;44432;49.786;22.760;2023-04-01T14:45:51;97684.46;;;13.61;59.77
58662;BME280;44432;49.786;22.760;2023-04-01T14:48:33;97683.37;;;13.69;60.01
58662;BME280;44432;49.786;22.760;2023-04-01T14:51:15;97680.02;;;13.74;60.24
58662;BME280;44432;49.786;22.760;2023-04-01T14:53:56;97679.16;;;13.62;59.43
58662;BME280;44432;49.786;22.760;2023-04-01T14:56:40;97685.39;;;13.56;60.80
58662;BME280;44432;49.786;22.760;2023-04-01T14:59:17;97688.08;;;13.51;61.46
58662;BME280;44432;49.786;22.760;2023-04-01T15:02:00;97686.93;;;13.43;61.24
58662;BME280;44432;49.786;22.760;2023-04-01T15:04:54;97693.23;;;13.43;61.52
58662;BME280;44432;49.786;22.760;2023-04-01T15:11:07;97694.70;;;13.64;62.33
58662;BME280;44432;49.786;22.760;2023-04-01T15:14:01;97697.65;;;13.68;62.60
58662;BME280;44432;49.786;22.760;2023-04-01T15:16:41;97700.31;;;13.63;62.87
58662;BME280;44432;49.786;22.760;2023-04-01T15:19:26;97702.54;;;13.54;63.15